sensor_id;sensor_type;location;lat;lon;timestamp;temperature;humidity
26595;DHT22;14238;49.496;8.154;2023-08-06T00:02:23;14.90;99.90
26595;DHT22;14238;49.496;8.154;2023-08-06T00:04:48;14.80;99.90
26595;DHT22;14238;49.496;8.154;2023-08-06T00:07:14;14.80;99.90
26595;DHT22;14238;49.496;8.154;2023-08-06T00:09:39;14.80;99.90
26595;DHT22;14238;49.496;8.154;2023-08-06T00:12:05;14.80;99.90
26595;DHT22;14238;49.496;8.154;2023-08-06T00:14:31;14.80;99.90
26595;DHT22;14238;49.496;8.154;2023-08-06T00:16:58;14.70;99.90
26595;DHT22;14238;49.496;8.154;2023-08-06T00:19:23;14.70;99.90
26595;DHT22;14238;49.496;8.154;2023-08-06T00:21:49;14.80;99.90
26595;DHT22;14238;49.496;8.154;2023-08-06T00:24:14;14.80;99.90
26595;DHT22;14238;49.496;8.154;2023-08-06T00:26:40;14.80;99.90
26595;DHT22;14238;49.496;8.154;2023-08-06T00:29:05;14.70;99.90
26595;DHT22;14238;49.496;8.154;2023-08-06T00:31:31;14.60;99.90
26595;DHT22;14238;49.496;8.154;2023-08-06T00:33:56;14.60;99.90
26595;DHT22;14238;49.496;8.154;2023-08-06T00:36:22;14.60;99.90
26595;DHT22;14238;49.496;8.154;2023-08-06T00:38:48;14.50;99.90
26595;DHT22;14238;49.496;8.154;2023-08-06T00:41:13;14.50;99.90
26595;DHT22;14238;49.496;8.154;2023-08-06T00:43:40;14.50;99.90
26595;DHT22;14238;49.496;8.154;2023-08-06T00:46:05;14.50;99.90
26595;DHT22;14238;49.496;8.154;2023-08-06T00:48:32;14.50;99.90
26595;DHT22;14238;49.496;8.154;2023-08-06T00:50:58;14.60;99.90
26595;DHT22;14238;49.496;8.154;2023-08-06T00:53:23;14.60;99.90
26595;DHT22;14238;49.496;8.154;2023-08-06T00:55:50;14.60;99.90
26595;DHT22;14238;49.496;8.154;2023-08-06T00:58:16;14.70;99.90
26595;DHT22;14238;49.496;8.154;2023-08-06T01:00:42;14.90;99.90
26595;DHT22;14238;49.496;8.154;2023-08-06T01:03:08;15.00;99.90
26595;DHT22;14238;49.496;8.154;2023-08-06T01:05:33;15.00;99.90
26595;DHT22;14238;49.496;8.154;2023-08-06T01:08:12;15.00;99.90
26595;DHT22;14238;49.496;8.154;2023-08-06T01:13:43;15.00;99.90
26595;DHT22;14238;49.496;8.154;2023-08-06T01:16:09;15.10;99.90
26595;DHT22;14238;49.496;8.154;2023-08-06T01:18:36;15.00;99.90
26595;DHT22;14238;49.496;8.154;2023-08-06T01:21:04;15.00;99.90
26595;DHT22;14238;49.496;8.154;2023-08-06T01:23:30;15.00;99.90
26595;DHT22;14238;49.496;8.154;2023-08-06T01:26:15;15.10;99.90
26595;DHT22;14238;49.496;8.154;2023-08-06T01:29:01;15.10;99.90
26595;DHT22;14238;49.496;8.154;2023-08-06T01:31:36;15.20;99.90
26595;DHT22;14238;49.496;8.154;2023-08-06T01:34:06;15.20;99.90
26595;DHT22;14238;49.496;8.154;2023-08-06T01:36:32;15.20;99.90
26595;DHT22;14238;49.496;8.154;2023-08-06T01:38:59;15.30;99.90
26595;DHT22;14238;49.496;8.154;2023-08-06T01:41:25;15.20;99.90
26595;DHT22;14238;49.496;8.154;2023-08-06T01:43:50;15.30;99.90
26595;DHT22;14238;49.496;8.154;2023-08-06T01:46:16;15.40;99.90
26595;DHT22;14238;49.496;8.154;2023-08-06T01:48:41;15.40;99.90
26595;DHT22;14238;49.496;8.154;2023-08-06T01:51:07;15.30;99.90
26595;DHT22;14238;49.496;8.154;2023-08-06T01:53:33;15.40;99.90
26595;DHT22;14238;49.496;8.154;2023-08-06T01:55:59;15.40;99.90
26595;DHT22;14238;49.496;8.154;2023-08-06T01:58:24;15.40;99.90
26595;DHT22;14238;49.496;8.154;2023-08-06T02:00:50;15.40;99.90
26595;DHT22;14238;49.496;8.154;2023-08-06T02:03:15;15.40;99.90
26595;DHT22;14238;49.496;8.154;2023-08-06T02:05:41;15.40;99.90
26595;DHT22;14238;49.496;8.154;2023-08-06T02:08:07;15.40;99.90
26595;DHT22;14238;49.496;8.154;2023-08-06T02:10:32;15.40;99.90
26595;DHT22;14238;49.496;8.154;2023-08-06T02:12:58;15.30;99.90
26595;DHT22;14238;49.496;8.154;2023-08-06T02:15:24;15.30;99.90
26595;DHT22;14238;49.496;8.154;2023-08-06T02:17:49;15.30;99.90
26595;DHT22;14238;49.496;8.154;2023-08-06T02:20:15;15.30;99.90
26595;DHT22;14238;49.496;8.154;2023-08-06T02:22:40;15.30;99.90
26595;DHT22;14238;49.496;8.154;2023-08-06T02:25:06;15.30;99.90
26595;DHT22;14238;49.496;8.154;2023-08-06T02:27:31;15.30;99.90
26595;DHT22;14238;49.496;8.154;2023-08-06T02:29:57;15.30;99.90
26595;DHT22;14238;49.496;8.154;2023-08-06T02:32:23;15.20;99.90
26595;DHT22;14238;49.496;8.154;2023-08-06T02:34:48;15.30;99.90
26595;DHT22;14238;49.496;8.154;2023-08-06T02:37:13;15.20;99.90
26595;DHT22;14238;49.496;8.154;2023-08-06T02:39:39;15.20;99.90
26595;DHT22;14238;49.496;8.154;2023-08-06T02:42:07;15.20;99.90
26595;DHT22;14238;49.496;8.154;2023-08-06T02:44:33;15.20;99.90
26595;DHT22;14238;49.496;8.154;2023-08-06T02:46:59;15.20;99.90
26595;DHT22;14238;49.496;8.154;2023-08-06T02:49:25;15.20;99.90
26595;DHT22;14238;49.496;8.154;2023-08-06T02:51:50;15.10;99.90
26595;DHT22;14238;49.496;8.154;2023-08-06T02:54:16;15.10;99.90
26595;DHT22;14238;49.496;8.154;2023-08-06T02:56:47;15.10;99.90
26595;DHT22;14238;49.496;8.154;2023-08-06T02:59:13;15.10;99.90
26595;DHT22;14238;49.496;8.154;2023-08-06T03:01:39;15.10;99.90
26595;DHT22;14238;49.496;8.154;2023-08-06T03:04:05;15.10;99.90
26595;DHT22;14238;49.496;8.154;2023-08-06T03:06:30;15.00;99.90
26595;DHT22;14238;49.496;8.154;2023-08-06T03:08:56;15.00;99.90
26595;DHT22;14238;49.496;8.154;2023-08-06T03:11:22;15.00;99.90
26595;DHT22;14238;49.496;8.154;2023-08-06T03:13:48;15.00;99.90
26595;DHT22;14238;49.496;8.154;2023-08-06T03:16:14;15.00;99.90
26595;DHT22;14238;49.496;8.154;2023-08-06T03:18:39;15.00;99.90
26595;DHT22;14238;49.496;8.154;2023-08-06T03:21:05;15.00;99.90
26595;DHT22;14238;49.496;8.154;2023-08-06T03:23:31;15.00;99.90
26595;DHT22;14238;49.496;8.154;2023-08-06T03:25:56;15.00;99.90
26595;DHT22;14238;49.496;8.154;2023-08-06T03:28:26;15.00;99.90
26595;DHT22;14238;49.496;8.154;2023-08-06T03:31:02;15.00;99.90
26595;DHT22;14238;49.496;8.154;2023-08-06T03:33:28;15.00;99.90
26595;DHT22;14238;49.496;8.154;2023-08-06T03:35:53;15.00;99.90
26595;DHT22;14238;49.496;8.154;2023-08-06T03:38:19;14.90;99.90
26595;DHT22;14238;49.496;8.154;2023-08-06T03:40:45;14.90;99.90
26595;DHT22;14238;49.496;8.154;2023-08-06T03:43:11;14.80;99.90
26595;DHT22;14238;49.496;8.154;2023-08-06T03:45:36;14.80;99.90
26595;DHT22;14238;49.496;8.154;2023-08-06T03:48:02;14.80;99.90
26595;DHT22;14238;49.496;8.154;2023-08-06T03:50:28;14.80;99.90
26595;DHT22;14238;49.496;8.154;2023-08-06T03:52:53;14.70;99.90
26595;DHT22;14238;49.496;8.154;2023-08-06T03:55:19;14.70;99.90
26595;DHT22;14238;49.496;8.154;2023-08-06T03:57:44;14.60;99.90
26595;DHT22;14238;49.496;8.154;2023-08-06T04:00:10;14.50;99.90
26595;DHT22;14238;49.496;8.154;2023-08-06T04:02:36;14.50;99.90
26595;DHT22;14238;49.496;8.154;2023-08-06T04:05:01;14.50;99.90
26595;DHT22;14238;49.496;8.154;2023-08-06T04:07:27;14.40;99.90
26595;DHT22;14238;49.496;8.154;2023-08-06T04:09:54;14.40;99.90
26595;DHT22;14238;49.496;8.154;2023-08-06T04:12:20;14.50;99.90
26595;DHT22;14238;49.496;8.154;2023-08-06T04:14:46;14.40;99.90
26595;DHT22;14238;49.496;8.154;2023-08-06T04:17:11;14.40;99.90
26595;DHT22;14238;49.496;8.154;2023-08-06T04:19:37;14.40;99.90
26595;DHT22;14238;49.496;8.154;2023-08-06T04:22:02;14.50;99.90
26595;DHT22;14238;49.496;8.154;2023-08-06T04:24:28;14.40;99.90
26595;DHT22;14238;49.496;8.154;2023-08-06T04:26:53;14.50;99.90
26595;DHT22;14238;49.496;8.154;2023-08-06T04:29:19;14.40;99.90
26595;DHT22;14238;49.496;8.154;2023-08-06T04:31:44;14.40;99.90
26595;DHT22;14238;49.496;8.154;2023-08-06T04:34:10;14.40;99.90
26595;DHT22;14238;49.496;8.154;2023-08-06T04:36:35;14.40;99.90
26595;DHT22;14238;49.496;8.154;2023-08-06T04:39:01;14.50;99.90
26595;DHT22;14238;49.496;8.154;2023-08-06T04:41:28;14.50;99.90
26595;DHT22;14238;49.496;8.154;2023-08-06T04:43:53;14.40;99.90
26595;DHT22;14238;49.496;8.154;2023-08-06T04:46:19;14.50;99.90
26595;DHT22;14238;49.496;8.154;2023-08-06T04:48:44;14.50;99.90
26595;DHT22;14238;49.496;8.154;2023-08-06T04:51:10;14.40;99.90
26595;DHT22;14238;49.496;8.154;2023-08-06T04:53:35;14.40;99.90
26595;DHT22;14238;49.496;8.154;2023-08-06T04:56:01;14.40;99.90
26595;DHT22;14238;49.496;8.154;2023-08-06T04:58:26;14.50;99.90
26595;DHT22;14238;49.496;8.154;2023-08-06T05:00:53;14.40;99.90
26595;DHT22;14238;49.496;8.154;2023-08-06T05:03:19;14.50;99.90
26595;DHT22;14238;49.496;8.154;2023-08-06T05:05:46;14.50;99.90
26595;DHT22;14238;49.496;8.154;2023-08-06T05:08:15;14.50;99.90
26595;DHT22;14238;49.496;8.154;2023-08-06T05:10:43;14.50;99.90
26595;DHT22;14238;49.496;8.154;2023-08-06T05:13:09;14.50;99.90
26595;DHT22;14238;49.496;8.154;2023-08-06T05:15:35;14.50;99.90
26595;DHT22;14238;49.496;8.154;2023-08-06T05:18:00;14.50;99.90
26595;DHT22;14238;49.496;8.154;2023-08-06T05:20:26;14.40;99.90
26595;DHT22;14238;49.496;8.154;2023-08-06T05:22:51;14.50;99.90
26595;DHT22;14238;49.496;8.154;2023-08-06T05:25:17;14.50;99.90
26595;DHT22;14238;49.496;8.154;2023-08-06T05:27:43;14.60;99.90
26595;DHT22;14238;49.496;8.154;2023-08-06T05:30:09;14.50;99.90
26595;DHT22;14238;49.496;8.154;2023-08-06T05:32:35;14.50;99.90
26595;DHT22;14238;49.496;8.154;2023-08-06T05:35:01;14.50;99.90
26595;DHT22;14238;49.496;8.154;2023-08-06T05:37:26;14.50;99.90
26595;DHT22;14238;49.496;8.154;2023-08-06T05:39:52;14.50;99.90
26595;DHT22;14238;49.496;8.154;2023-08-06T05:42:17;14.60;99.90
26595;DHT22;14238;49.496;8.154;2023-08-06T05:44:43;14.60;99.90
26595;DHT22;14238;49.496;8.154;2023-08-06T05:47:08;14.50;99.90
26595;DHT22;14238;49.496;8.154;2023-08-06T05:49:34;14.50;99.90
26595;DHT22;14238;49.496;8.154;2023-08-06T05:51:59;14.50;99.90
26595;DHT22;14238;49.496;8.154;2023-08-06T05:54:25;14.50;99.90
26595;DHT22;14238;49.496;8.154;2023-08-06T05:56:50;14.60;99.90
26595;DHT22;14238;49.496;8.154;2023-08-06T05:59:16;14.60;99.90
26595;DHT22;14238;49.496;8.154;2023-08-06T06:01:41;14.60;99.90
26595;DHT22;14238;49.496;8.154;2023-08-06T06:04:07;14.60;99.90
26595;DHT22;14238;49.496;8.154;2023-08-06T06:06:32;14.60;99.90
26595;DHT22;14238;49.496;8.154;2023-08-06T06:08:58;14.60;99.90
26595;DHT22;14238;49.496;8.154;2023-08-06T06:11:23;14.60;99.90
26595;DHT22;14238;49.496;8.154;2023-08-06T06:13:51;14.70;99.90
26595;DHT22;14238;49.496;8.154;2023-08-06T06:16:16;14.70;99.90
26595;DHT22;14238;49.496;8.154;2023-08-06T06:18:42;14.80;99.90
26595;DHT22;14238;49.496;8.154;2023-08-06T06:21:07;14.80;99.90
26595;DHT22;14238;49.496;8.154;2023-08-06T06:23:33;14.80;99.90
26595;DHT22;14238;49.496;8.154;2023-08-06T06:25:59;14.80;99.90
26595;DHT22;14238;49.496;8.154;2023-08-06T06:28:25;14.90;99.90
26595;DHT22;14238;49.496;8.154;2023-08-06T06:30:51;15.00;99.90
26595;DHT22;14238;49.496;8.154;2023-08-06T06:33:17;15.00;99.90
26595;DHT22;14238;49.496;8.154;2023-08-06T06:35:42;15.00;99.90
26595;DHT22;14238;49.496;8.154;2023-08-06T06:38:08;15.00;99.90
26595;DHT22;14238;49.496;8.154;2023-08-06T06:40:33;15.00;99.90
26595;DHT22;14238;49.496;8.154;2023-08-06T06:42:59;15.00;99.90
26595;DHT22;14238;49.496;8.154;2023-08-06T06:45:25;15.10;99.90
26595;DHT22;14238;49.496;8.154;2023-08-06T06:47:50;15.20;99.90
26595;DHT22;14238;49.496;8.154;2023-08-06T06:50:16;15.20;99.90
26595;DHT22;14238;49.496;8.154;2023-08-06T06:52:41;15.20;99.90
26595;DHT22;14238;49.496;8.154;2023-08-06T06:55:07;15.30;99.90
26595;DHT22;14238;49.496;8.154;2023-08-06T06:57:33;15.20;99.90
26595;DHT22;14238;49.496;8.154;2023-08-06T06:59:58;15.30;99.90
26595;DHT22;14238;49.496;8.154;2023-08-06T07:02:24;15.30;99.90
26595;DHT22;14238;49.496;8.154;2023-08-06T07:04:50;15.40;99.90
26595;DHT22;14238;49.496;8.154;2023-08-06T07:07:15;15.40;99.90
26595;DHT22;14238;49.496;8.154;2023-08-06T07:09:41;15.50;99.90
26595;DHT22;14238;49.496;8.154;2023-08-06T07:12:07;15.40;99.90
26595;DHT22;14238;49.496;8.154;2023-08-06T07:14:33;15.30;99.90
26595;DHT22;14238;49.496;8.154;2023-08-06T07:16:58;15.20;99.90
26595;DHT22;14238;49.496;8.154;2023-08-06T07:19:24;15.30;99.90
26595;DHT22;14238;49.496;8.154;2023-08-06T07:21:49;15.30;99.90
26595;DHT22;14238;49.496;8.154;2023-08-06T07:24:15;15.30;99.90
26595;DHT22;14238;49.496;8.154;2023-08-06T07:26:41;15.20;99.90
26595;DHT22;14238;49.496;8.154;2023-08-06T07:29:07;15.20;99.90
26595;DHT22;14238;49.496;8.154;2023-08-06T07:31:32;15.30;99.90
26595;DHT22;14238;49.496;8.154;2023-08-06T07:33:58;15.30;99.90
26595;DHT22;14238;49.496;8.154;2023-08-06T07:36:23;15.40;99.90
26595;DHT22;14238;49.496;8.154;2023-08-06T07:38:49;15.50;99.90
26595;DHT22;14238;49.496;8.154;2023-08-06T07:41:21;15.70;99.90
26595;DHT22;14238;49.496;8.154;2023-08-06T07:43:46;15.70;99.90
26595;DHT22;14238;49.496;8.154;2023-08-06T07:46:12;15.90;99.90
26595;DHT22;14238;49.496;8.154;2023-08-06T07:48:38;16.10;99.90
26595;DHT22;14238;49.496;8.154;2023-08-06T07:51:04;16.20;99.90
26595;DHT22;14238;49.496;8.154;2023-08-06T07:53:29;16.40;99.90
26595;DHT22;14238;49.496;8.154;2023-08-06T07:55:56;16.40;99.90
26595;DHT22;14238;49.496;8.154;2023-08-06T07:58:23;16.50;99.90
26595;DHT22;14238;49.496;8.154;2023-08-06T08:00:49;16.40;99.90
26595;DHT22;14238;49.496;8.154;2023-08-06T08:03:16;16.20;99.90
26595;DHT22;14238;49.496;8.154;2023-08-06T08:05:44;16.40;99.90
26595;DHT22;14238;49.496;8.154;2023-08-06T08:08:10;16.50;99.90
26595;DHT22;14238;49.496;8.154;2023-08-06T08:10:35;16.50;99.90
26595;DHT22;14238;49.496;8.154;2023-08-06T08:13:02;16.50;99.90
26595;DHT22;14238;49.496;8.154;2023-08-06T08:15:28;16.50;99.90
26595;DHT22;14238;49.496;8.154;2023-08-06T08:17:54;16.50;99.90
26595;DHT22;14238;49.496;8.154;2023-08-06T08:20:20;16.60;99.90
26595;DHT22;14238;49.496;8.154;2023-08-06T08:22:46;16.80;99.90
26595;DHT22;14238;49.496;8.154;2023-08-06T08:25:11;16.90;99.90
26595;DHT22;14238;49.496;8.154;2023-08-06T08:27:37;16.90;99.90
26595;DHT22;14238;49.496;8.154;2023-08-06T08:30:02;16.70;99.90
26595;DHT22;14238;49.496;8.154;2023-08-06T08:32:28;16.90;99.90
26595;DHT22;14238;49.496;8.154;2023-08-06T08:34:53;16.90;99.90
26595;DHT22;14238;49.496;8.154;2023-08-06T08:37:19;16.90;99.90
26595;DHT22;14238;49.496;8.154;2023-08-06T08:39:45;17.00;99.90
26595;DHT22;14238;49.496;8.154;2023-08-06T08:42:10;16.90;99.90
26595;DHT22;14238;49.496;8.154;2023-08-06T08:44:36;16.80;99.90
26595;DHT22;14238;49.496;8.154;2023-08-06T08:47:06;17.10;99.90
26595;DHT22;14238;49.496;8.154;2023-08-06T08:49:32;17.20;99.90
26595;DHT22;14238;49.496;8.154;2023-08-06T08:51:59;17.00;99.90
26595;DHT22;14238;49.496;8.154;2023-08-06T08:54:25;17.20;99.90
26595;DHT22;14238;49.496;8.154;2023-08-06T08:56:51;17.20;99.90
26595;DHT22;14238;49.496;8.154;2023-08-06T08:59:17;17.50;99.90
26595;DHT22;14238;49.496;8.154;2023-08-06T09:01:43;17.80;99.90
26595;DHT22;14238;49.496;8.154;2023-08-06T09:04:12;18.40;99.90
26595;DHT22;14238;49.496;8.154;2023-08-06T09:06:39;18.60;99.90
26595;DHT22;14238;49.496;8.154;2023-08-06T09:09:09;18.90;99.90
26595;DHT22;14238;49.496;8.154;2023-08-06T09:11:44;18.60;99.90
26595;DHT22;14238;49.496;8.154;2023-08-06T09:14:11;18.10;99.90
26595;DHT22;14238;49.496;8.154;2023-08-06T09:16:37;17.70;99.90
26595;DHT22;14238;49.496;8.154;2023-08-06T09:19:13;17.50;99.90
26595;DHT22;14238;49.496;8.154;2023-08-06T09:21:41;17.20;99.90
26595;DHT22;14238;49.496;8.154;2023-08-06T09:24:11;17.20;99.90
26595;DHT22;14238;49.496;8.154;2023-08-06T09:26:41;16.80;99.90
26595;DHT22;14238;49.496;8.154;2023-08-06T09:29:08;16.70;99.90
26595;DHT22;14238;49.496;8.154;2023-08-06T09:31:44;16.90;99.90
26595;DHT22;14238;49.496;8.154;2023-08-06T09:34:23;16.90;99.90
26595;DHT22;14238;49.496;8.154;2023-08-06T09:36:53;17.10;99.90
26595;DHT22;14238;49.496;8.154;2023-08-06T09:39:20;16.60;99.90
26595;DHT22;14238;49.496;8.154;2023-08-06T09:41:47;16.30;99.90
26595;DHT22;14238;49.496;8.154;2023-08-06T09:44:20;16.30;99.90
26595;DHT22;14238;49.496;8.154;2023-08-06T09:46:54;16.30;99.90
26595;DHT22;14238;49.496;8.154;2023-08-06T09:49:25;16.30;99.90
26595;DHT22;14238;49.496;8.154;2023-08-06T09:51:51;16.00;99.90
26595;DHT22;14238;49.496;8.154;2023-08-06T09:54:19;16.00;99.90
26595;DHT22;14238;49.496;8.154;2023-08-06T09:56:44;16.00;99.90
26595;DHT22;14238;49.496;8.154;2023-08-06T09:59:10;15.80;99.90
26595;DHT22;14238;49.496;8.154;2023-08-06T10:01:38;15.80;99.90
26595;DHT22;14238;49.496;8.154;2023-08-06T10:04:05;15.70;99.90
26595;DHT22;14238;49.496;8.154;2023-08-06T10:06:34;15.70;99.90
26595;DHT22;14238;49.496;8.154;2023-08-06T10:09:04;15.60;99.90
26595;DHT22;14238;49.496;8.154;2023-08-06T10:11:30;15.60;99.90
26595;DHT22;14238;49.496;8.154;2023-08-06T10:14:11;15.60;99.90
26595;DHT22;14238;49.496;8.154;2023-08-06T10:16:39;15.60;99.90
26595;DHT22;14238;49.496;8.154;2023-08-06T10:19:07;15.60;99.90
26595;DHT22;14238;49.496;8.154;2023-08-06T10:21:34;15.60;99.90
26595;DHT22;14238;49.496;8.154;2023-08-06T10:23:59;15.70;99.90
26595;DHT22;14238;49.496;8.154;2023-08-06T10:26:30;15.80;99.90
26595;DHT22;14238;49.496;8.154;2023-08-06T10:28:56;15.70;99.90
26595;DHT22;14238;49.496;8.154;2023-08-06T10:31:53;15.70;99.90
26595;DHT22;14238;49.496;8.154;2023-08-06T10:34:20;15.50;99.90
26595;DHT22;14238;49.496;8.154;2023-08-06T10:36:46;15.40;99.90
26595;DHT22;14238;49.496;8.154;2023-08-06T10:39:14;15.40;99.90
26595;DHT22;14238;49.496;8.154;2023-08-06T10:41:42;15.50;99.90
26595;DHT22;14238;49.496;8.154;2023-08-06T10:44:09;15.40;99.90
26595;DHT22;14238;49.496;8.154;2023-08-06T10:46:36;15.30;99.90
26595;DHT22;14238;49.496;8.154;2023-08-06T10:49:02;15.50;99.90
26595;DHT22;14238;49.496;8.154;2023-08-06T10:51:28;15.60;99.90
26595;DHT22;14238;49.496;8.154;2023-08-06T10:53:54;15.70;99.90
26595;DHT22;14238;49.496;8.154;2023-08-06T10:56:24;15.80;99.90
26595;DHT22;14238;49.496;8.154;2023-08-06T10:58:56;16.00;99.90
26595;DHT22;14238;49.496;8.154;2023-08-06T11:01:28;16.20;99.90
26595;DHT22;14238;49.496;8.154;2023-08-06T11:03:55;16.00;99.90
26595;DHT22;14238;49.496;8.154;2023-08-06T11:06:21;16.10;99.90
26595;DHT22;14238;49.496;8.154;2023-08-06T11:08:52;16.30;99.90
26595;DHT22;14238;49.496;8.154;2023-08-06T11:11:18;16.50;99.90
26595;DHT22;14238;49.496;8.154;2023-08-06T11:13:48;17.00;99.90
26595;DHT22;14238;49.496;8.154;2023-08-06T11:16:15;17.50;99.90
26595;DHT22;14238;49.496;8.154;2023-08-06T11:18:41;17.70;99.90
26595;DHT22;14238;49.496;8.154;2023-08-06T11:21:07;17.50;99.90
26595;DHT22;14238;49.496;8.154;2023-08-06T11:23:34;17.50;99.90
26595;DHT22;14238;49.496;8.154;2023-08-06T11:25:59;17.60;99.90
26595;DHT22;14238;49.496;8.154;2023-08-06T11:28:25;17.50;99.90
26595;DHT22;14238;49.496;8.154;2023-08-06T11:30:51;17.70;99.90
26595;DHT22;14238;49.496;8.154;2023-08-06T11:33:21;17.60;99.90
26595;DHT22;14238;49.496;8.154;2023-08-06T11:35:48;17.40;99.90
26595;DHT22;14238;49.496;8.154;2023-08-06T11:38:14;17.30;99.90
26595;DHT22;14238;49.496;8.154;2023-08-06T11:40:39;17.10;99.90
26595;DHT22;14238;49.496;8.154;2023-08-06T11:43:09;17.00;99.90
26595;DHT22;14238;49.496;8.154;2023-08-06T11:45:38;17.20;99.90
26595;DHT22;14238;49.496;8.154;2023-08-06T11:48:03;17.50;99.90
26595;DHT22;14238;49.496;8.154;2023-08-06T11:50:30;18.00;99.90
26595;DHT22;14238;49.496;8.154;2023-08-06T11:53:00;17.90;99.90
26595;DHT22;14238;49.496;8.154;2023-08-06T11:55:28;18.60;99.90
26595;DHT22;14238;49.496;8.154;2023-08-06T11:57:54;19.10;99.90
26595;DHT22;14238;49.496;8.154;2023-08-06T12:00:23;18.90;99.90
26595;DHT22;14238;49.496;8.154;2023-08-06T12:02:49;18.50;99.90
26595;DHT22;14238;49.496;8.154;2023-08-06T12:05:19;19.10;99.90
26595;DHT22;14238;49.496;8.154;2023-08-06T12:07:54;19.40;99.90
26595;DHT22;14238;49.496;8.154;2023-08-06T12:10:21;19.40;99.90
26595;DHT22;14238;49.496;8.154;2023-08-06T12:12:47;19.80;99.90
26595;DHT22;14238;49.496;8.154;2023-08-06T12:15:13;19.90;99.90
26595;DHT22;14238;49.496;8.154;2023-08-06T12:17:39;19.20;99.90
26595;DHT22;14238;49.496;8.154;2023-08-06T12:20:06;18.60;99.90
26595;DHT22;14238;49.496;8.154;2023-08-06T12:22:33;18.60;99.90
26595;DHT22;14238;49.496;8.154;2023-08-06T12:25:07;19.60;99.90
26595;DHT22;14238;49.496;8.154;2023-08-06T12:27:41;20.10;99.90
26595;DHT22;14238;49.496;8.154;2023-08-06T12:30:08;21.00;99.90
26595;DHT22;14238;49.496;8.154;2023-08-06T12:32:34;20.60;99.90
26595;DHT22;14238;49.496;8.154;2023-08-06T12:35:00;20.80;99.90
26595;DHT22;14238;49.496;8.154;2023-08-06T12:37:26;20.30;99.90
26595;DHT22;14238;49.496;8.154;2023-08-06T12:39:52;20.40;99.90
26595;DHT22;14238;49.496;8.154;2023-08-06T12:42:17;19.50;99.90
26595;DHT22;14238;49.496;8.154;2023-08-06T12:44:43;19.70;99.90
26595;DHT22;14238;49.496;8.154;2023-08-06T12:47:08;20.20;99.90
26595;DHT22;14238;49.496;8.154;2023-08-06T12:49:34;20.30;99.90
26595;DHT22;14238;49.496;8.154;2023-08-06T12:51:59;20.40;99.90
26595;DHT22;14238;49.496;8.154;2023-08-06T12:54:26;19.20;99.90
26595;DHT22;14238;49.496;8.154;2023-08-06T12:56:52;18.60;99.90
26595;DHT22;14238;49.496;8.154;2023-08-06T12:59:18;18.40;99.90
26595;DHT22;14238;49.496;8.154;2023-08-06T13:01:44;18.20;99.90
26595;DHT22;14238;49.496;8.154;2023-08-06T13:04:10;17.80;99.90
26595;DHT22;14238;49.496;8.154;2023-08-06T13:06:36;17.90;99.90
26595;DHT22;14238;49.496;8.154;2023-08-06T13:09:12;17.90;99.90
26595;DHT22;14238;49.496;8.154;2023-08-06T13:11:39;17.80;99.90
26595;DHT22;14238;49.496;8.154;2023-08-06T13:14:09;17.80;99.90
26595;DHT22;14238;49.496;8.154;2023-08-06T13:16:37;17.70;99.90
26595;DHT22;14238;49.496;8.154;2023-08-06T13:19:04;17.70;99.90
26595;DHT22;14238;49.496;8.154;2023-08-06T13:21:33;17.60;99.90
26595;DHT22;14238;49.496;8.154;2023-08-06T13:24:00;17.50;99.90
26595;DHT22;14238;49.496;8.154;2023-08-06T13:26:27;17.60;99.90
26595;DHT22;14238;49.496;8.154;2023-08-06T13:28:52;17.20;99.90
26595;DHT22;14238;49.496;8.154;2023-08-06T13:31:18;17.20;99.90
26595;DHT22;14238;49.496;8.154;2023-08-06T13:33:43;17.20;99.90
26595;DHT22;14238;49.496;8.154;2023-08-06T13:36:09;17.10;99.90
26595;DHT22;14238;49.496;8.154;2023-08-06T13:38:34;17.00;99.90
26595;DHT22;14238;49.496;8.154;2023-08-06T13:41:01;16.90;99.90
26595;DHT22;14238;49.496;8.154;2023-08-06T13:43:27;17.00;99.90
26595;DHT22;14238;49.496;8.154;2023-08-06T13:45:53;17.20;99.90
26595;DHT22;14238;49.496;8.154;2023-08-06T13:48:18;17.30;99.90
26595;DHT22;14238;49.496;8.154;2023-08-06T13:50:44;17.30;99.90
26595;DHT22;14238;49.496;8.154;2023-08-06T13:53:10;18.00;99.90
26595;DHT22;14238;49.496;8.154;2023-08-06T13:55:36;18.90;99.90
26595;DHT22;14238;49.496;8.154;2023-08-06T13:58:01;18.50;99.90
26595;DHT22;14238;49.496;8.154;2023-08-06T14:00:27;17.90;99.90
26595;DHT22;14238;49.496;8.154;2023-08-06T14:02:52;17.80;99.90
26595;DHT22;14238;49.496;8.154;2023-08-06T14:05:18;19.30;99.90
26595;DHT22;14238;49.496;8.154;2023-08-06T14:07:43;18.10;99.90
26595;DHT22;14238;49.496;8.154;2023-08-06T14:10:09;17.90;99.90
26595;DHT22;14238;49.496;8.154;2023-08-06T14:12:35;17.70;99.90
26595;DHT22;14238;49.496;8.154;2023-08-06T14:15:00;17.60;99.90
26595;DHT22;14238;49.496;8.154;2023-08-06T14:17:27;17.80;99.90
26595;DHT22;14238;49.496;8.154;2023-08-06T14:19:52;17.50;99.90
26595;DHT22;14238;49.496;8.154;2023-08-06T14:22:18;18.60;99.90
26595;DHT22;14238;49.496;8.154;2023-08-06T14:24:43;19.20;99.90
26595;DHT22;14238;49.496;8.154;2023-08-06T14:27:09;19.80;99.90
26595;DHT22;14238;49.496;8.154;2023-08-06T14:29:35;19.60;99.90
26595;DHT22;14238;49.496;8.154;2023-08-06T14:32:00;20.60;99.90
26595;DHT22;14238;49.496;8.154;2023-08-06T14:34:26;19.20;99.90
26595;DHT22;14238;49.496;8.154;2023-08-06T14:36:52;17.90;99.90
26595;DHT22;14238;49.496;8.154;2023-08-06T14:39:18;17.60;99.90
26595;DHT22;14238;49.496;8.154;2023-08-06T14:41:44;17.40;99.90
26595;DHT22;14238;49.496;8.154;2023-08-06T14:44:09;17.20;99.90
26595;DHT22;14238;49.496;8.154;2023-08-06T14:46:35;17.00;99.90
26595;DHT22;14238;49.496;8.154;2023-08-06T14:49:00;16.70;99.90
26595;DHT22;14238;49.496;8.154;2023-08-06T14:51:26;16.40;99.90
26595;DHT22;14238;49.496;8.154;2023-08-06T14:53:51;16.30;99.90
26595;DHT22;14238;49.496;8.154;2023-08-06T14:56:17;16.30;99.90
26595;DHT22;14238;49.496;8.154;2023-08-06T15:01:08;16.60;99.90
26595;DHT22;14238;49.496;8.154;2023-08-06T15:03:34;16.70;99.90
26595;DHT22;14238;49.496;8.154;2023-08-06T15:06:00;16.90;99.90
26595;DHT22;14238;49.496;8.154;2023-08-06T15:08:25;16.90;99.90
26595;DHT22;14238;49.496;8.154;2023-08-06T15:10:54;16.90;99.90
26595;DHT22;14238;49.496;8.154;2023-08-06T15:13:20;16.80;99.90
26595;DHT22;14238;49.496;8.154;2023-08-06T15:15:49;16.70;99.90
26595;DHT22;14238;49.496;8.154;2023-08-06T15:18:15;16.60;99.90
26595;DHT22;14238;49.496;8.154;2023-08-06T15:20:41;16.60;99.90
26595;DHT22;14238;49.496;8.154;2023-08-06T15:23:06;16.70;99.90
26595;DHT22;14238;49.496;8.154;2023-08-06T15:25:32;16.70;99.90
26595;DHT22;14238;49.496;8.154;2023-08-06T15:27:57;16.80;99.90
26595;DHT22;14238;49.496;8.154;2023-08-06T15:30:23;16.50;99.90
26595;DHT22;14238;49.496;8.154;2023-08-06T15:32:48;16.60;99.90